sensor_id;sensor_type;location;lat;lon;timestamp;P1;durP1;ratioP1;P2;durP2;ratioP2
13660;SDS011;6903;49.480;11.102;2023-11-21T00:01:06;1.20;;;0.87;;
13660;SDS011;6903;49.480;11.102;2023-11-21T00:03:33;1.50;;;0.97;;
13660;SDS011;6903;49.480;11.102;2023-11-21T00:05:59;1.93;;;1.10;;
13660;SDS011;6903;49.480;11.102;2023-11-21T00:08:25;1.53;;;0.73;;
13660;SDS011;6903;49.480;11.102;2023-11-21T00:10:51;1.00;;;0.80;;
13660;SDS011;6903;49.480;11.102;2023-11-21T00:13:16;1.37;;;1.03;;
13660;SDS011;6903;49.480;11.102;2023-11-21T00:15:42;1.63;;;0.93;;
13660;SDS011;6903;49.480;11.102;2023-11-21T00:18:08;1.23;;;1.00;;
13660;SDS011;6903;49.480;11.102;2023-11-21T00:20:33;1.23;;;1.00;;
13660;SDS011;6903;49.480;11.102;2023-11-21T00:22:58;1.83;;;1.10;;
13660;SDS011;6903;49.480;11.102;2023-11-21T00:25:27;1.27;;;1.03;;
13660;SDS011;6903;49.480;11.102;2023-11-21T00:27:53;1.07;;;0.97;;
13660;SDS011;6903;49.480;11.102;2023-11-21T00:30:19;1.77;;;1.03;;
13660;SDS011;6903;49.480;11.102;2023-11-21T00:32:45;1.30;;;0.90;;
13660;SDS011;6903;49.480;11.102;2023-11-21T00:35:10;2.37;;;1.20;;
13660;SDS011;6903;49.480;11.102;2023-11-21T00:37:35;2.13;;;1.10;;
13660;SDS011;6903;49.480;11.102;2023-11-21T00:40:01;2.03;;;1.20;;
13660;SDS011;6903;49.480;11.102;2023-11-21T00:42:32;1.43;;;1.23;;
13660;SDS011;6903;49.480;11.102;2023-11-21T00:44:58;2.13;;;1.10;;
13660;SDS011;6903;49.480;11.102;2023-11-21T00:47:24;1.73;;;1.20;;
13660;SDS011;6903;49.480;11.102;2023-11-21T00:49:49;1.73;;;1.40;;
13660;SDS011;6903;49.480;11.102;2023-11-21T00:52:15;1.63;;;1.20;;
13660;SDS011;6903;49.480;11.102;2023-11-21T00:54:41;1.73;;;1.27;;
13660;SDS011;6903;49.480;11.102;2023-11-21T00:57:06;1.60;;;1.20;;
13660;SDS011;6903;49.480;11.102;2023-11-21T00:59:33;1.17;;;1.03;;
13660;SDS011;6903;49.480;11.102;2023-11-21T01:01:59;3.17;;;1.20;;
13660;SDS011;6903;49.480;11.102;2023-11-21T01:04:26;2.67;;;1.30;;
13660;SDS011;6903;49.480;11.102;2023-11-21T01:06:51;1.40;;;1.10;;
13660;SDS011;6903;49.480;11.102;2023-11-21T01:09:17;2.13;;;1.20;;
13660;SDS011;6903;49.480;11.102;2023-11-21T01:11:43;1.67;;;1.13;;
13660;SDS011;6903;49.480;11.102;2023-11-21T01:14:09;1.83;;;1.40;;
13660;SDS011;6903;49.480;11.102;2023-11-21T01:16:35;2.40;;;1.60;;
13660;SDS011;6903;49.480;11.102;2023-11-21T01:19:01;2.27;;;1.30;;
13660;SDS011;6903;49.480;11.102;2023-11-21T01:21:26;2.23;;;1.53;;
13660;SDS011;6903;49.480;11.102;2023-11-21T01:23:53;3.93;;;1.27;;
13660;SDS011;6903;49.480;11.102;2023-11-21T01:26:18;1.90;;;1.37;;
13660;SDS011;6903;49.480;11.102;2023-11-21T01:28:43;1.50;;;1.30;;
13660;SDS011;6903;49.480;11.102;2023-11-21T01:31:09;1.43;;;1.20;;
13660;SDS011;6903;49.480;11.102;2023-11-21T01:33:34;1.57;;;1.23;;
13660;SDS011;6903;49.480;11.102;2023-11-21T01:35:59;2.03;;;1.50;;
13660;SDS011;6903;49.480;11.102;2023-11-21T01:38:25;2.10;;;1.37;;
13660;SDS011;6903;49.480;11.102;2023-11-21T01:40:50;5.77;;;1.40;;
13660;SDS011;6903;49.480;11.102;2023-11-21T01:43:16;1.90;;;1.30;;
13660;SDS011;6903;49.480;11.102;2023-11-21T01:45:41;2.07;;;1.13;;
13660;SDS011;6903;49.480;11.102;2023-11-21T01:48:07;2.53;;;1.30;;
13660;SDS011;6903;49.480;11.102;2023-11-21T01:50:33;1.97;;;1.20;;
13660;SDS011;6903;49.480;11.102;2023-11-21T01:52:59;1.33;;;1.13;;
13660;SDS011;6903;49.480;11.102;2023-11-21T01:55:25;1.97;;;1.13;;
13660;SDS011;6903;49.480;11.102;2023-11-21T01:57:52;4.73;;;1.47;;
13660;SDS011;6903;49.480;11.102;2023-11-21T02:00:18;1.30;;;1.10;;
13660;SDS011;6903;49.480;11.102;2023-11-21T02:02:45;2.87;;;1.40;;
13660;SDS011;6903;49.480;11.102;2023-11-21T02:05:11;2.10;;;1.10;;
13660;SDS011;6903;49.480;11.102;2023-11-21T02:07:41;1.67;;;1.13;;
13660;SDS011;6903;49.480;11.102;2023-11-21T02:10:12;2.03;;;1.43;;
13660;SDS011;6903;49.480;11.102;2023-11-21T02:12:40;2.97;;;1.60;;
13660;SDS011;6903;49.480;11.102;2023-11-21T02:15:06;2.50;;;1.40;;
13660;SDS011;6903;49.480;11.102;2023-11-21T02:17:39;1.97;;;1.50;;
13660;SDS011;6903;49.480;11.102;2023-11-21T02:20:12;2.63;;;1.50;;
13660;SDS011;6903;49.480;11.102;2023-11-21T02:22:42;1.77;;;1.37;;
13660;SDS011;6903;49.480;11.102;2023-11-21T02:25:09;1.73;;;1.40;;
13660;SDS011;6903;49.480;11.102;2023-11-21T02:27:34;1.63;;;1.20;;
13660;SDS011;6903;49.480;11.102;2023-11-21T02:29:59;1.57;;;1.27;;
13660;SDS011;6903;49.480;11.102;2023-11-21T02:32:26;1.30;;;1.20;;
13660;SDS011;6903;49.480;11.102;2023-11-21T02:34:51;1.30;;;1.20;;
13660;SDS011;6903;49.480;11.102;2023-11-21T02:37:16;1.70;;;1.40;;
13660;SDS011;6903;49.480;11.102;2023-11-21T02:39:42;1.77;;;1.37;;
13660;SDS011;6903;49.480;11.102;2023-11-21T02:42:07;1.67;;;1.20;;
13660;SDS011;6903;49.480;11.102;2023-11-21T02:44:33;2.17;;;1.37;;
13660;SDS011;6903;49.480;11.102;2023-11-21T02:46:59;1.53;;;1.10;;
13660;SDS011;6903;49.480;11.102;2023-11-21T02:49:25;1.93;;;1.37;;
13660;SDS011;6903;49.480;11.102;2023-11-21T02:51:53;1.60;;;1.43;;
13660;SDS011;6903;49.480;11.102;2023-11-21T02:54:19;1.30;;;1.20;;
13660;SDS011;6903;49.480;11.102;2023-11-21T02:56:46;2.70;;;1.13;;
13660;SDS011;6903;49.480;11.102;2023-11-21T02:59:12;3.07;;;1.30;;
13660;SDS011;6903;49.480;11.102;2023-11-21T03:01:37;4.73;;;1.40;;
13660;SDS011;6903;49.480;11.102;2023-11-21T03:04:03;3.90;;;1.30;;
13660;SDS011;6903;49.480;11.102;2023-11-21T03:06:28;1.73;;;1.30;;
13660;SDS011;6903;49.480;11.102;2023-11-21T03:08:54;1.93;;;1.23;;
13660;SDS011;6903;49.480;11.102;2023-11-21T03:11:19;1.40;;;1.20;;
13660;SDS011;6903;49.480;11.102;2023-11-21T03:13:44;2.70;;;1.60;;
13660;SDS011;6903;49.480;11.102;2023-11-21T03:16:10;3.73;;;1.37;;
13660;SDS011;6903;49.480;11.102;2023-11-21T03:18:36;2.80;;;1.60;;
13660;SDS011;6903;49.480;11.102;2023-11-21T03:21:02;2.67;;;1.50;;
13660;SDS011;6903;49.480;11.102;2023-11-21T03:23:28;2.87;;;1.67;;
13660;SDS011;6903;49.480;11.102;2023-11-21T03:25:53;2.90;;;1.73;;
13660;SDS011;6903;49.480;11.102;2023-11-21T03:28:18;3.07;;;1.50;;
13660;SDS011;6903;49.480;11.102;2023-11-21T03:30:44;2.97;;;1.70;;
13660;SDS011;6903;49.480;11.102;2023-11-21T03:33:09;3.37;;;1.60;;
13660;SDS011;6903;49.480;11.102;2023-11-21T03:35:34;2.47;;;1.30;;
13660;SDS011;6903;49.480;11.102;2023-11-21T03:38:00;2.40;;;1.57;;
13660;SDS011;6903;49.480;11.102;2023-11-21T03:40:25;2.30;;;1.80;;
13660;SDS011;6903;49.480;11.102;2023-11-21T03:42:50;4.13;;;1.60;;
13660;SDS011;6903;49.480;11.102;2023-11-21T03:45:16;2.83;;;1.73;;
13660;SDS011;6903;49.480;11.102;2023-11-21T03:47:41;1.63;;;1.40;;
13660;SDS011;6903;49.480;11.102;2023-11-21T03:50:07;2.03;;;1.50;;
13660;SDS011;6903;49.480;11.102;2023-11-21T03:52:34;2.40;;;1.50;;
13660;SDS011;6903;49.480;11.102;2023-11-21T03:55:00;2.73;;;1.57;;
13660;SDS011;6903;49.480;11.102;2023-11-21T03:57:25;2.53;;;1.53;;
13660;SDS011;6903;49.480;11.102;2023-11-21T03:59:52;3.57;;;1.67;;
13660;SDS011;6903;49.480;11.102;2023-11-21T04:02:18;1.87;;;1.60;;
13660;SDS011;6903;49.480;11.102;2023-11-21T04:04:43;2.57;;;1.87;;
13660;SDS011;6903;49.480;11.102;2023-11-21T04:07:09;2.47;;;1.87;;
13660;SDS011;6903;49.480;11.102;2023-11-21T04:09:34;2.90;;;1.70;;
13660;SDS011;6903;49.480;11.102;2023-11-21T04:12:01;3.30;;;1.57;;
13660;SDS011;6903;49.480;11.102;2023-11-21T04:14:26;2.83;;;1.97;;
13660;SDS011;6903;49.480;11.102;2023-11-21T04:16:52;3.17;;;1.93;;
13660;SDS011;6903;49.480;11.102;2023-11-21T04:19:18;2.20;;;1.70;;
13660;SDS011;6903;49.480;11.102;2023-11-21T04:21:43;3.83;;;1.93;;
13660;SDS011;6903;49.480;11.102;2023-11-21T04:24:09;2.00;;;1.60;;
13660;SDS011;6903;49.480;11.102;2023-11-21T04:26:35;3.70;;;2.00;;
13660;SDS011;6903;49.480;11.102;2023-11-21T04:29:00;3.00;;;1.93;;
13660;SDS011;6903;49.480;11.102;2023-11-21T04:31:26;4.37;;;1.80;;
13660;SDS011;6903;49.480;11.102;2023-11-21T04:33:51;3.67;;;1.73;;
13660;SDS011;6903;49.480;11.102;2023-11-21T04:36:16;4.03;;;2.00;;
13660;SDS011;6903;49.480;11.102;2023-11-21T04:38:42;2.80;;;1.87;;
13660;SDS011;6903;49.480;11.102;2023-11-21T04:41:07;2.10;;;1.50;;
13660;SDS011;6903;49.480;11.102;2023-11-21T04:43:33;3.07;;;1.60;;
13660;SDS011;6903;49.480;11.102;2023-11-21T04:45:58;2.50;;;1.50;;
13660;SDS011;6903;49.480;11.102;2023-11-21T04:48:24;2.27;;;1.47;;
13660;SDS011;6903;49.480;11.102;2023-11-21T04:50:50;3.23;;;1.53;;
13660;SDS011;6903;49.480;11.102;2023-11-21T04:53:15;2.20;;;1.80;;
13660;SDS011;6903;49.480;11.102;2023-11-21T04:55:41;3.20;;;1.70;;
13660;SDS011;6903;49.480;11.102;2023-11-21T04:58:06;2.40;;;1.90;;
13660;SDS011;6903;49.480;11.102;2023-11-21T05:00:33;1.63;;;1.47;;
13660;SDS011;6903;49.480;11.102;2023-11-21T05:02:58;2.00;;;1.47;;
13660;SDS011;6903;49.480;11.102;2023-11-21T05:05:26;4.03;;;1.60;;
13660;SDS011;6903;49.480;11.102;2023-11-21T05:07:51;1.97;;;1.60;;
13660;SDS011;6903;49.480;11.102;2023-11-21T05:10:18;4.63;;;1.80;;
13660;SDS011;6903;49.480;11.102;2023-11-21T05:12:44;4.20;;;1.60;;
13660;SDS011;6903;49.480;11.102;2023-11-21T05:15:10;1.60;;;1.50;;
13660;SDS011;6903;49.480;11.102;2023-11-21T05:17:39;2.37;;;1.50;;
13660;SDS011;6903;49.480;11.102;2023-11-21T05:20:09;1.50;;;1.10;;
13660;SDS011;6903;49.480;11.102;2023-11-21T05:22:36;2.60;;;1.33;;
13660;SDS011;6903;49.480;11.102;2023-11-21T05:25:02;2.87;;;1.70;;
13660;SDS011;6903;49.480;11.102;2023-11-21T05:27:29;2.43;;;1.90;;
13660;SDS011;6903;49.480;11.102;2023-11-21T05:29:55;2.83;;;1.80;;
13660;SDS011;6903;49.480;11.102;2023-11-21T05:32:21;2.67;;;1.80;;
13660;SDS011;6903;49.480;11.102;2023-11-21T05:34:47;2.17;;;1.97;;
13660;SDS011;6903;49.480;11.102;2023-11-21T05:37:13;1.70;;;1.40;;
13660;SDS011;6903;49.480;11.102;2023-11-21T05:39:38;2.10;;;1.70;;
13660;SDS011;6903;49.480;11.102;2023-11-21T05:42:03;3.03;;;2.00;;
13660;SDS011;6903;49.480;11.102;2023-11-21T05:44:29;3.33;;;1.90;;
13660;SDS011;6903;49.480;11.102;2023-11-21T05:46:54;3.77;;;2.17;;
13660;SDS011;6903;49.480;11.102;2023-11-21T05:49:20;3.27;;;2.10;;
13660;SDS011;6903;49.480;11.102;2023-11-21T05:51:46;2.30;;;2.07;;
13660;SDS011;6903;49.480;11.102;2023-11-21T05:54:12;3.37;;;2.13;;
13660;SDS011;6903;49.480;11.102;2023-11-21T05:56:37;4.47;;;2.40;;
13660;SDS011;6903;49.480;11.102;2023-11-21T05:59:03;2.47;;;1.90;;
13660;SDS011;6903;49.480;11.102;2023-11-21T06:01:28;6.90;;;2.57;;
13660;SDS011;6903;49.480;11.102;2023-11-21T06:03:54;3.70;;;2.00;;
13660;SDS011;6903;49.480;11.102;2023-11-21T06:06:20;7.13;;;2.40;;
13660;SDS011;6903;49.480;11.102;2023-11-21T06:08:47;3.80;;;2.23;;
13660;SDS011;6903;49.480;11.102;2023-11-21T06:11:13;5.60;;;2.30;;
13660;SDS011;6903;49.480;11.102;2023-11-21T06:13:39;4.50;;;2.47;;
13660;SDS011;6903;49.480;11.102;2023-11-21T06:16:04;3.87;;;2.50;;
13660;SDS011;6903;49.480;11.102;2023-11-21T06:18:30;4.20;;;2.30;;
13660;SDS011;6903;49.480;11.102;2023-11-21T06:20:55;3.37;;;2.47;;
13660;SDS011;6903;49.480;11.102;2023-11-21T06:23:20;3.23;;;2.30;;
13660;SDS011;6903;49.480;11.102;2023-11-21T06:25:46;3.43;;;2.23;;
13660;SDS011;6903;49.480;11.102;2023-11-21T06:28:11;7.33;;;2.80;;
13660;SDS011;6903;49.480;11.102;2023-11-21T06:30:36;4.80;;;2.50;;
13660;SDS011;6903;49.480;11.102;2023-11-21T06:33:02;4.43;;;2.50;;
13660;SDS011;6903;49.480;11.102;2023-11-21T06:35:27;6.63;;;2.77;;
13660;SDS011;6903;49.480;11.102;2023-11-21T06:37:55;3.80;;;2.70;;
13660;SDS011;6903;49.480;11.102;2023-11-21T06:40:20;4.30;;;2.90;;
13660;SDS011;6903;49.480;11.102;2023-11-21T06:42:46;4.00;;;2.90;;
13660;SDS011;6903;49.480;11.102;2023-11-21T06:45:12;4.17;;;3.23;;
13660;SDS011;6903;49.480;11.102;2023-11-21T06:47:38;4.43;;;3.23;;
13660;SDS011;6903;49.480;11.102;2023-11-21T06:50:03;6.53;;;3.13;;
13660;SDS011;6903;49.480;11.102;2023-11-21T06:52:29;6.03;;;3.53;;
13660;SDS011;6903;49.480;11.102;2023-11-21T06:54:54;4.93;;;3.47;;
13660;SDS011;6903;49.480;11.102;2023-11-21T06:57:20;6.87;;;3.70;;
13660;SDS011;6903;49.480;11.102;2023-11-21T06:59:45;5.03;;;3.27;;
13660;SDS011;6903;49.480;11.102;2023-11-21T07:02:11;6.00;;;3.73;;
13660;SDS011;6903;49.480;11.102;2023-11-21T07:04:36;5.00;;;3.20;;
13660;SDS011;6903;49.480;11.102;2023-11-21T07:07:04;4.73;;;3.40;;
13660;SDS011;6903;49.480;11.102;2023-11-21T07:09:31;5.20;;;3.00;;
13660;SDS011;6903;49.480;11.102;2023-11-21T07:11:57;6.20;;;3.37;;
13660;SDS011;6903;49.480;11.102;2023-11-21T07:14:22;4.37;;;3.10;;
13660;SDS011;6903;49.480;11.102;2023-11-21T07:16:48;6.10;;;4.10;;
13660;SDS011;6903;49.480;11.102;2023-11-21T07:19:13;5.20;;;3.07;;
13660;SDS011;6903;49.480;11.102;2023-11-21T07:21:39;6.97;;;3.97;;
13660;SDS011;6903;49.480;11.102;2023-11-21T07:24:06;5.80;;;3.50;;
13660;SDS011;6903;49.480;11.102;2023-11-21T07:26:32;6.87;;;4.00;;
13660;SDS011;6903;49.480;11.102;2023-11-21T07:28:58;4.63;;;3.60;;
13660;SDS011;6903;49.480;11.102;2023-11-21T07:31:24;5.43;;;3.40;;
13660;SDS011;6903;49.480;11.102;2023-11-21T07:33:50;7.93;;;3.60;;
13660;SDS011;6903;49.480;11.102;2023-11-21T07:36:16;6.00;;;3.20;;
13660;SDS011;6903;49.480;11.102;2023-11-21T07:38:43;6.27;;;4.07;;
13660;SDS011;6903;49.480;11.102;2023-11-21T07:41:09;5.77;;;3.43;;
13660;SDS011;6903;49.480;11.102;2023-11-21T07:43:36;5.47;;;3.93;;
13660;SDS011;6903;49.480;11.102;2023-11-21T07:46:02;5.53;;;3.40;;
13660;SDS011;6903;49.480;11.102;2023-11-21T07:48:30;6.23;;;3.70;;
13660;SDS011;6903;49.480;11.102;2023-11-21T07:50:58;6.40;;;3.60;;
13660;SDS011;6903;49.480;11.102;2023-11-21T07:53:25;5.63;;;3.67;;
13660;SDS011;6903;49.480;11.102;2023-11-21T07:55:50;6.83;;;4.10;;
13660;SDS011;6903;49.480;11.102;2023-11-21T07:58:17;7.27;;;4.17;;
13660;SDS011;6903;49.480;11.102;2023-11-21T08:00:43;6.90;;;4.10;;
13660;SDS011;6903;49.480;11.102;2023-11-21T08:03:08;6.00;;;4.23;;
13660;SDS011;6903;49.480;11.102;2023-11-21T08:05:33;5.63;;;4.33;;
13660;SDS011;6903;49.480;11.102;2023-11-21T08:07:59;6.07;;;4.30;;
13660;SDS011;6903;49.480;11.102;2023-11-21T08:10:24;7.50;;;4.17;;
13660;SDS011;6903;49.480;11.102;2023-11-21T08:12:50;8.47;;;4.30;;
13660;SDS011;6903;49.480;11.102;2023-11-21T08:15:15;6.73;;;4.37;;
13660;SDS011;6903;49.480;11.102;2023-11-21T08:17:41;7.63;;;4.50;;
13660;SDS011;6903;49.480;11.102;2023-11-21T08:20:06;6.20;;;3.90;;
13660;SDS011;6903;49.480;11.102;2023-11-21T08:22:33;10.70;;;4.30;;
13660;SDS011;6903;49.480;11.102;2023-11-21T08:24:59;5.97;;;4.13;;
13660;SDS011;6903;49.480;11.102;2023-11-21T08:27:24;5.57;;;4.20;;
13660;SDS011;6903;49.480;11.102;2023-11-21T08:29:50;7.23;;;4.00;;
13660;SDS011;6903;49.480;11.102;2023-11-21T08:32:17;5.33;;;3.63;;
13660;SDS011;6903;49.480;11.102;2023-11-21T08:34:43;6.17;;;4.50;;
13660;SDS011;6903;49.480;11.102;2023-11-21T08:37:09;7.40;;;4.70;;
13660;SDS011;6903;49.480;11.102;2023-11-21T08:39:36;6.03;;;4.40;;
13660;SDS011;6903;49.480;11.102;2023-11-21T08:42:02;5.53;;;3.90;;
13660;SDS011;6903;49.480;11.102;2023-11-21T08:44:28;6.87;;;4.37;;
13660;SDS011;6903;49.480;11.102;2023-11-21T08:46:55;6.83;;;4.43;;
13660;SDS011;6903;49.480;11.102;2023-11-21T08:49:20;7.37;;;4.27;;
13660;SDS011;6903;49.480;11.102;2023-11-21T08:51:45;6.73;;;4.20;;
13660;SDS011;6903;49.480;11.102;2023-11-21T08:54:11;7.63;;;5.00;;
13660;SDS011;6903;49.480;11.102;2023-11-21T08:56:36;9.33;;;5.27;;
13660;SDS011;6903;49.480;11.102;2023-11-21T08:59:02;7.93;;;5.10;;
13660;SDS011;6903;49.480;11.102;2023-11-21T09:01:28;8.40;;;5.53;;
13660;SDS011;6903;49.480;11.102;2023-11-21T09:03:56;8.27;;;5.80;;
13660;SDS011;6903;49.480;11.102;2023-11-21T09:06:22;8.43;;;5.53;;
13660;SDS011;6903;49.480;11.102;2023-11-21T09:08:48;10.57;;;6.10;;
13660;SDS011;6903;49.480;11.102;2023-11-21T09:11:13;11.10;;;6.33;;
13660;SDS011;6903;49.480;11.102;2023-11-21T09:13:38;9.10;;;5.80;;
13660;SDS011;6903;49.480;11.102;2023-11-21T09:16:04;8.33;;;5.73;;
13660;SDS011;6903;49.480;11.102;2023-11-21T09:18:30;8.57;;;5.73;;
13660;SDS011;6903;49.480;11.102;2023-11-21T09:20:56;8.23;;;5.13;;
13660;SDS011;6903;49.480;11.102;2023-11-21T09:23:21;7.13;;;4.87;;
13660;SDS011;6903;49.480;11.102;2023-11-21T09:25:46;7.50;;;5.03;;
13660;SDS011;6903;49.480;11.102;2023-11-21T09:28:14;9.33;;;5.10;;
13660;SDS011;6903;49.480;11.102;2023-11-21T09:30:40;5.63;;;4.13;;
13660;SDS011;6903;49.480;11.102;2023-11-21T09:33:05;7.87;;;4.73;;
13660;SDS011;6903;49.480;11.102;2023-11-21T09:35:31;6.73;;;4.60;;
13660;SDS011;6903;49.480;11.102;2023-11-21T09:37:57;6.60;;;3.97;;
13660;SDS011;6903;49.480;11.102;2023-11-21T09:40:22;5.87;;;4.03;;
13660;SDS011;6903;49.480;11.102;2023-11-21T09:42:55;7.43;;;4.60;;
13660;SDS011;6903;49.480;11.102;2023-11-21T09:47:51;5.90;;;4.20;;
13660;SDS011;6903;49.480;11.102;2023-11-21T09:50:17;5.63;;;4.27;;
13660;SDS011;6903;49.480;11.102;2023-11-21T09:55:35;5.80;;;3.97;;
13660;SDS011;6903;49.480;11.102;2023-11-21T09:58:02;4.70;;;3.73;;
13660;SDS011;6903;49.480;11.102;2023-11-21T10:00:28;6.47;;;4.00;;
13660;SDS011;6903;49.480;11.102;2023-11-21T10:02:58;7.07;;;3.43;;
13660;SDS011;6903;49.480;11.102;2023-11-21T10:05:24;3.43;;;2.97;;
13660;SDS011;6903;49.480;11.102;2023-11-21T10:07:49;6.20;;;3.63;;
13660;SDS011;6903;49.480;11.102;2023-11-21T10:10:16;4.13;;;3.03;;
13660;SDS011;6903;49.480;11.102;2023-11-21T10:12:44;3.63;;;3.13;;
13660;SDS011;6903;49.480;11.102;2023-11-21T10:15:16;5.33;;;3.47;;
13660;SDS011;6903;49.480;11.102;2023-11-21T10:17:42;5.13;;;3.40;;
13660;SDS011;6903;49.480;11.102;2023-11-21T10:20:10;5.37;;;3.57;;
13660;SDS011;6903;49.480;11.102;2023-11-21T10:22:41;4.43;;;2.60;;
13660;SDS011;6903;49.480;11.102;2023-11-21T10:25:08;4.30;;;3.03;;
13660;SDS011;6903;49.480;11.102;2023-11-21T10:27:34;4.07;;;3.00;;
13660;SDS011;6903;49.480;11.102;2023-11-21T10:30:01;3.70;;;2.33;;
13660;SDS011;6903;49.480;11.102;2023-11-21T10:32:28;3.50;;;2.27;;
13660;SDS011;6903;49.480;11.102;2023-11-21T10:34:57;3.93;;;2.47;;
13660;SDS011;6903;49.480;11.102;2023-11-21T10:37:22;4.33;;;2.60;;
13660;SDS011;6903;49.480;11.102;2023-11-21T10:39:48;3.43;;;2.50;;
13660;SDS011;6903;49.480;11.102;2023-11-21T10:42:14;3.77;;;2.50;;
13660;SDS011;6903;49.480;11.102;2023-11-21T10:44:41;3.23;;;2.33;;
13660;SDS011;6903;49.480;11.102;2023-11-21T10:47:08;3.00;;;2.47;;
13660;SDS011;6903;49.480;11.102;2023-11-21T10:49:36;3.07;;;2.33;;
13660;SDS011;6903;49.480;11.102;2023-11-21T10:52:02;3.33;;;2.50;;
13660;SDS011;6903;49.480;11.102;2023-11-21T10:54:28;3.20;;;2.57;;
13660;SDS011;6903;49.480;11.102;2023-11-21T10:56:57;3.70;;;2.63;;
13660;SDS011;6903;49.480;11.102;2023-11-21T10:59:25;3.37;;;2.70;;
13660;SDS011;6903;49.480;11.102;2023-11-21T11:01:54;4.37;;;2.47;;
13660;SDS011;6903;49.480;11.102;2023-11-21T11:04:23;2.43;;;2.23;;
13660;SDS011;6903;49.480;11.102;2023-11-21T11:06:55;2.77;;;2.33;;
13660;SDS011;6903;49.480;11.102;2023-11-21T11:09:23;2.40;;;2.03;;
13660;SDS011;6903;49.480;11.102;2023-11-21T11:11:49;3.20;;;2.57;;
13660;SDS011;6903;49.480;11.102;2023-11-21T11:14:16;3.37;;;2.00;;
13660;SDS011;6903;49.480;11.102;2023-11-21T11:16:44;5.23;;;2.03;;
13660;SDS011;6903;49.480;11.102;2023-11-21T11:19:10;1.80;;;1.60;;
13660;SDS011;6903;49.480;11.102;2023-11-21T11:35:25;3.50;;;1.70;;
13660;SDS011;6903;49.480;11.102;2023-11-21T11:37:58;2.37;;;1.77;;
13660;SDS011;6903;49.480;11.102;2023-11-21T11:40:26;1.70;;;1.53;;
13660;SDS011;6903;49.480;11.102;2023-11-21T11:43:05;2.40;;;1.90;;
13660;SDS011;6903;49.480;11.102;2023-11-21T11:45:32;2.20;;;1.97;;
13660;SDS011;6903;49.480;11.102;2023-11-21T11:48:02;2.37;;;2.00;;
13660;SDS011;6903;49.480;11.102;2023-11-21T11:50:28;2.80;;;2.10;;
13660;SDS011;6903;49.480;11.102;2023-11-21T11:52:54;1.90;;;1.70;;
13660;SDS011;6903;49.480;11.102;2023-11-21T11:55:36;3.63;;;2.07;;
13660;SDS011;6903;49.480;11.102;2023-11-21T11:58:04;3.23;;;2.03;;
13660;SDS011;6903;49.480;11.102;2023-11-21T12:00:34;3.23;;;1.80;;
13660;SDS011;6903;49.480;11.102;2023-11-21T12:03:03;4.00;;;1.90;;
13660;SDS011;6903;49.480;11.102;2023-11-21T12:05:30;3.10;;;2.00;;
13660;SDS011;6903;49.480;11.102;2023-11-21T12:08:10;3.00;;;1.70;;
13660;SDS011;6903;49.480;11.102;2023-11-21T12:10:37;2.27;;;2.00;;
13660;SDS011;6903;49.480;11.102;2023-11-21T12:15:38;2.13;;;1.90;;
13660;SDS011;6903;49.480;11.102;2023-11-21T12:18:05;3.23;;;2.10;;
13660;SDS011;6903;49.480;11.102;2023-11-21T12:20:31;3.23;;;2.17;;
13660;SDS011;6903;49.480;11.102;2023-11-21T12:22:57;2.63;;;2.20;;
13660;SDS011;6903;49.480;11.102;2023-11-21T12:25:28;2.73;;;1.90;;
13660;SDS011;6903;49.480;11.102;2023-11-21T12:27:57;2.77;;;2.00;;
13660;SDS011;6903;49.480;11.102;2023-11-21T12:30:23;3.90;;;2.57;;
13660;SDS011;6903;49.480;11.102;2023-11-21T12:32:53;2.70;;;2.10;;
13660;SDS011;6903;49.480;11.102;2023-11-21T12:35:21;4.07;;;2.60;;
13660;SDS011;6903;49.480;11.102;2023-11-21T12:37:48;3.47;;;2.83;;
13660;SDS011;6903;49.480;11.102;2023-11-21T12:40:14;2.97;;;2.40;;
13660;SDS011;6903;49.480;11.102;2023-11-21T12:42:41;4.00;;;2.97;;
13660;SDS011;6903;49.480;11.102;2023-11-21T12:45:08;3.67;;;3.13;;
13660;SDS011;6903;49.480;11.102;2023-11-21T12:47:39;3.33;;;2.50;;
13660;SDS011;6903;49.480;11.102;2023-11-21T12:50:05;3.67;;;2.70;;
13660;SDS011;6903;49.480;11.102;2023-11-21T12:52:32;3.03;;;2.57;;
13660;SDS011;6903;49.480;11.102;2023-11-21T12:54:57;3.10;;;2.60;;
13660;SDS011;6903;49.480;11.102;2023-11-21T12:57:26;3.17;;;2.70;;
13660;SDS011;6903;49.480;11.102;2023-11-21T12:59:56;4.50;;;2.60;;
13660;SDS011;6903;49.480;11.102;2023-11-21T13:02:22;2.90;;;2.43;;
13660;SDS011;6903;49.480;11.102;2023-11-21T13:04:53;2.53;;;2.27;;
13660;SDS011;6903;49.480;11.102;2023-11-21T13:07:19;2.30;;;2.07;;
13660;SDS011;6903;49.480;11.102;2023-11-21T13:09:45;2.80;;;2.30;;
13660;SDS011;6903;49.480;11.102;2023-11-21T13:12:10;2.90;;;2.50;;
13660;SDS011;6903;49.480;11.102;2023-11-21T13:14:37;5.13;;;2.60;;
13660;SDS011;6903;49.480;11.102;2023-11-21T13:17:05;2.70;;;2.40;;
13660;SDS011;6903;49.480;11.102;2023-11-21T13:19:30;3.87;;;3.00;;
13660;SDS011;6903;49.480;11.102;2023-11-21T13:21:56;2.97;;;2.53;;
13660;SDS011;6903;49.480;11.102;2023-11-21T13:24:21;4.23;;;2.57;;
13660;SDS011;6903;49.480;11.102;2023-11-21T13:26:46;3.80;;;2.40;;
13660;SDS011;6903;49.480;11.102;2023-11-21T13:29:12;3.23;;;2.53;;
13660;SDS011;6903;49.480;11.102;2023-11-21T13:31:38;4.10;;;2.70;;
13660;SDS011;6903;49.480;11.102;2023-11-21T13:34:04;2.50;;;2.30;;
13660;SDS011;6903;49.480;11.102;2023-11-21T13:36:30;3.13;;;2.40;;
13660;SDS011;6903;49.480;11.102;2023-11-21T13:38:58;3.37;;;2.13;;
13660;SDS011;6903;49.480;11.102;2023-11-21T13:41:24;4.73;;;2.30;;
13660;SDS011;6903;49.480;11.102;2023-11-21T13:43:55;4.03;;;2.70;;
13660;SDS011;6903;49.480;11.102;2023-11-21T13:46:29;2.80;;;2.20;;
13660;SDS011;6903;49.480;11.102;2023-11-21T13:49:00;3.40;;;2.30;;
13660;SDS011;6903;49.480;11.102;2023-11-21T13:51:25;5.00;;;2.50;;
13660;SDS011;6903;49.480;11.102;2023-11-21T13:54:04;3.23;;;2.40;;
13660;SDS011;6903;49.480;11.102;2023-11-21T13:56:34;3.20;;;2.20;;
13660;SDS011;6903;49.480;11.102;2023-11-21T13:58:59;5.97;;;1.90;;
13660;SDS011;6903;49.480;11.102;2023-11-21T14:01:34;4.27;;;2.07;;
13660;SDS011;6903;49.480;11.102;2023-11-21T14:04:17;2.47;;;1.90;;
13660;SDS011;6903;49.480;11.102;2023-11-21T14:06:43;4.00;;;2.20;;
13660;SDS011;6903;49.480;11.102;2023-11-21T14:09:23;4.33;;;2.20;;
13660;SDS011;6903;49.480;11.102;2023-11-21T14:11:58;3.77;;;2.10;;
13660;SDS011;6903;49.480;11.102;2023-11-21T14:14:24;2.20;;;1.73;;
13660;SDS011;6903;49.480;11.102;2023-11-21T14:16:51;2.43;;;1.93;;
13660;SDS011;6903;49.480;11.102;2023-11-21T14:19:16;3.83;;;2.67;;
13660;SDS011;6903;49.480;11.102;2023-11-21T14:21:45;4.23;;;2.27;;
13660;SDS011;6903;49.480;11.102;2023-11-21T14:24:13;2.47;;;2.10;;
13660;SDS011;6903;49.480;11.102;2023-11-21T14:26:43;3.70;;;2.63;;
13660;SDS011;6903;49.480;11.102;2023-11-21T14:29:13;3.43;;;2.03;;
13660;SDS011;6903;49.480;11.102;2023-11-21T14:31:45;2.60;;;2.33;;
13660;SDS011;6903;49.480;11.102;2023-11-21T14:34:13;3.03;;;2.30;;
13660;SDS011;6903;49.480;11.102;2023-11-21T14:36:40;2.70;;;2.10;;
13660;SDS011;6903;49.480;11.102;2023-11-21T14:39:06;2.37;;;1.83;;
13660;SDS011;6903;49.480;11.102;2023-11-21T14:41:34;4.57;;;2.00;;
13660;SDS011;6903;49.480;11.102;2023-11-21T14:44:01;4.87;;;1.80;;
13660;SDS011;6903;49.480;11.102;2023-11-21T14:46:28;2.10;;;1.90;;
13660;SDS011;6903;49.480;11.102;2023-11-21T14:48:53;3.80;;;2.00;;
13660;SDS011;6903;49.480;11.102;2023-11-21T14:51:25;2.30;;;1.90;;
13660;SDS011;6903;49.480;11.102;2023-11-21T14:53:52;3.57;;;1.87;;
13660;SDS011;6903;49.480;11.102;2023-11-21T14:56:29;2.57;;;1.83;;
13660;SDS011;6903;49.480;11.102;2023-11-21T14:58:59;3.73;;;2.00;;
13660;SDS011;6903;49.480;11.102;2023-11-21T15:01:32;2.80;;;1.93;;
13660;SDS011;6903;49.480;11.102;2023-11-21T15:04:18;3.10;;;2.17;;
13660;SDS011;6903;49.480;11.102;2023-11-21T15:07:03;2.20;;;1.80;;